Time;durP1;ratioP1;P1;durP2;ratioP2;P2;SDS_P1;SDS_P2;PMS_P1;PMS_P2;Temp;Humidity;BMP_temperature;BMP_pressure;BME280_temperature;BME280_humidity;BME280_pressure;Samples;Min_cycle;Max_cycle;Signal;HPM_P1;HPM_P2
2021/04/24 00:01:15;;;;;;;9.43;3.83;;;;;;;9.65;42.14;100718.06;4469179;32;34523;-81
2021/04/24 00:03:43;;;;;;;5.53;3.62;;;;;;;9.57;41.30;100713.59;4455266;32;33785;-81
2021/04/24 00:06:10;;;;;;;7.37;3.70;;;;;;;9.32;41.92;100714.84;4468079;32;33738;-81
2021/04/24 00:08:38;;;;;;;5.87;3.67;;;;;;;9.24;41.85;100713.84;4468125;32;33796;-81
2021/04/24 00:11:05;;;;;;;9.45;4.32;;;;;;;8.93;42.75;100714.06;4467813;32;35785;-81
2021/04/24 00:13:33;;;;;;;9.48;4.00;;;;;;;9.31;42.51;100718.31;4467856;32;33964;-81
2021/04/24 00:16:00;;;;;;;7.85;3.80;;;;;;;9.15;42.29;100718.84;4455223;32;34569;-81
2021/04/24 00:18:28;;;;;;;8.77;3.85;;;;;;;9.24;42.77;100719.03;4467698;32;33843;-81
2021/04/24 00:20:55;;;;;;;8.75;3.97;;;;;;;9.39;42.25;100714.09;4469858;32;34419;-81
2021/04/24 00:23:23;;;;;;;5.40;3.87;;;;;;;9.45;42.25;100722.03;4471060;32;34576;-81
2021/04/24 00:25:51;;;;;;;7.43;3.95;;;;;;;9.63;42.17;100719.75;4456962;32;33109;-81
2021/04/24 00:28:18;;;;;;;7.95;4.15;;;;;;;9.59;42.34;100720.56;4456945;32;34225;-81
2021/04/24 00:30:46;;;;;;;7.20;4.28;;;;;;;9.64;42.28;100718.94;4469843;32;36016;-81
2021/04/24 00:33:14;;;;;;;7.43;3.80;;;;;;;9.40;42.26;100721.06;4469707;32;35190;-81
2021/04/24 00:35:41;;;;;;;5.82;3.83;;;;;;;9.45;41.96;100719.44;4456800;32;32991;-81
2021/04/24 00:38:19;;;;;;;10.55;4.20;;;;;;;9.27;41.92;100721.69;4457930;32;33445;-81
2021/04/24 00:40:47;;;;;;;8.25;3.83;;;;;;;9.25;42.36;100718.16;4469933;32;35293;-81
2021/04/24 00:43:16;;;;;;;7.37;3.78;;;;;;;9.25;43.09;100725.94;4456610;32;33613;-81
2021/04/24 00:45:43;;;;;;;8.13;3.60;;;;;;;9.19;43.17;100728.44;4456871;32;33301;-81
2021/04/24 00:48:12;;;;;;;8.18;3.90;;;;;;;9.22;42.44;100723.31;4469722;32;35047;-81
2021/04/24 00:50:41;;;;;;;10.27;4.05;;;;;;;8.79;43.06;100719.81;4457094;32;34239;-81
2021/04/24 00:53:09;;;;;;;7.12;3.75;;;;;;;9.07;42.88;100717.81;4456832;32;33646;-81
2021/04/24 00:55:37;;;;;;;7.32;3.90;;;;;;;9.23;42.46;100725.94;4456834;32;34611;-81
2021/04/24 00:58:08;;;;;;;7.15;3.72;;;;;;;9.22;42.11;100728.50;4456860;32;33779;-81
2021/04/24 01:00:35;;;;;;;8.00;4.10;;;;;;;9.39;42.34;100729.69;4469621;32;35615;-81
2021/04/24 01:03:03;;;;;;;10.23;4.30;;;;;;;9.45;42.05;100728.09;4469745;32;34643;-81
2021/04/24 01:05:33;;;;;;;9.10;3.50;;;;;;;9.29;42.24;100728.66;4471066;32;34106;-81
2021/04/24 01:08:01;;;;;;;6.72;3.45;;;;;;;9.34;42.46;100729.59;4456590;32;33352;-81
2021/04/24 01:10:33;;;;;;;8.93;3.97;;;;;;;9.35;42.53;100728.78;4469437;32;34708;-81
2021/04/24 01:13:00;;;;;;;8.80;4.32;;;;;;;9.24;42.46;100732.88;4456653;32;33821;-81
2021/04/24 01:15:28;;;;;;;7.72;4.00;;;;;;;9.28;42.14;100733.81;4469383;32;33451;-81
2021/04/24 01:17:55;;;;;;;8.27;3.92;;;;;;;9.25;42.03;100733.72;4469574;32;33944;-81
2021/04/24 01:20:24;;;;;;;7.25;3.60;;;;;;;9.07;42.52;100741.16;4470565;32;36085;-81
2021/04/24 01:22:52;;;;;;;7.97;3.90;;;;;;;9.07;42.39;100733.38;4470565;32;34016;-81
2021/04/24 01:25:24;;;;;;;8.40;4.37;;;;;;;8.98;42.84;100739.25;4470465;32;34077;-81
2021/04/24 01:27:56;;;;;;;7.53;4.03;;;;;;;9.02;42.50;100722.03;4456544;32;33275;-81
2021/04/24 01:30:27;;;;;;;12.05;3.92;;;;;;;9.02;42.58;100735.00;4469445;32;34305;-81
2021/04/24 01:32:55;;;;;;;7.30;3.80;;;;;;;8.80;42.94;100734.56;4469877;32;35268;-81
2021/04/24 01:35:25;;;;;;;6.07;3.78;;;;;;;8.95;42.55;100733.13;4456779;32;34146;-81
2021/04/24 01:37:53;;;;;;;8.02;4.53;;;;;;;8.85;42.96;100729.47;4456243;32;33835;-81
2021/04/24 01:40:21;;;;;;;9.32;4.68;;;;;;;8.80;43.03;100731.94;4469125;32;34515;-81
2021/04/24 01:42:48;;;;;;;7.90;4.05;;;;;;;9.01;43.17;100725.47;4468940;32;34317;-81
2021/04/24 01:45:17;;;;;;;6.65;4.10;;;;;;;8.93;42.93;100725.31;4456318;32;33798;-81
2021/04/24 01:47:45;;;;;;;7.43;4.18;;;;;;;9.10;42.16;100728.25;4470180;32;34181;-81
2021/04/24 01:50:15;;;;;;;8.52;4.20;;;;;;;9.06;42.96;100732.50;4456164;32;34770;-81
2021/04/24 01:52:44;;;;;;;8.50;3.85;;;;;;;9.11;43.21;100740.38;4456154;32;33398;-81
2021/04/24 01:55:17;;;;;;;9.63;4.10;;;;;;;8.98;43.47;100738.37;4469022;32;33663;-81
2021/04/24 01:57:46;;;;;;;10.00;4.35;;;;;;;8.94;43.24;100731.38;4456039;32;34760;-81
2021/04/24 02:00:24;;;;;;;10.05;4.20;;;;;;;8.79;43.47;100732.78;4456241;32;35931;-81
2021/04/24 02:02:53;;;;;;;12.80;4.37;;;;;;;9.00;43.59;100731.50;4469124;32;34220;-81
2021/04/24 02:05:21;;;;;;;6.82;4.47;;;;;;;8.82;44.18;100732.84;4456272;32;32912;-81
2021/04/24 02:07:56;;;;;;;6.30;3.97;;;;;;;8.66;43.98;100738.56;4456230;32;33782;-81
2021/04/24 02:10:28;;;;;;;9.52;4.10;;;;;;;8.64;43.80;100740.25;4469030;32;34462;-81
2021/04/24 02:13:08;;;;;;;9.10;4.78;;;;;;;8.65;44.03;100741.97;4468756;32;34419;-81
2021/04/24 02:15:36;;;;;;;12.25;5.03;;;;;;;8.61;43.96;100742.75;4468963;32;34169;-81
2021/04/24 02:18:04;;;;;;;8.25;4.18;;;;;;;8.54;44.29;100745.19;4456087;32;34579;-81
2021/04/24 02:20:33;;;;;;;7.90;4.07;;;;;;;8.37;44.51;100737.00;4443272;32;33937;-81
2021/04/24 02:23:00;;;;;;;11.52;5.75;;;;;;;8.43;44.50;100744.06;4469053;32;33962;-81
2021/04/24 02:25:28;;;;;;;8.43;4.60;;;;;;;8.24;45.02;100744.44;4456092;32;33034;-81
2021/04/24 02:27:55;;;;;;;7.97;4.40;;;;;;;8.36;45.06;100742.19;4456308;32;33463;-81
2021/04/24 02:30:23;;;;;;;9.63;4.40;;;;;;;8.38;44.50;100738.78;4470191;32;34749;-81
2021/04/24 02:32:51;;;;;;;10.13;5.37;;;;;;;7.95;45.53;100743.72;4468883;32;34260;-81
2021/04/24 02:35:41;;;;;;;9.85;4.60;;;;;;;8.07;45.33;100737.12;4468700;32;32838;-81
2021/04/24 02:38:09;;;;;;;12.30;4.55;;;;;;;8.11;45.54;100738.97;4468920;32;33185;-81
2021/04/24 02:40:36;;;;;;;8.20;4.80;;;;;;;7.82;46.45;100741.69;4455986;32;33983;-81
2021/04/24 02:43:04;;;;;;;9.52;4.97;;;;;;;7.72;46.63;100742.25;4469688;32;33933;-81
2021/04/24 02:45:31;;;;;;;7.32;4.30;;;;;;;7.88;46.48;100739.22;4467713;32;34100;-81
2021/04/24 02:47:59;;;;;;;10.20;4.90;;;;;;;7.70;46.78;100733.59;4456098;32;33253;-81
2021/04/24 02:50:27;;;;;;;11.48;5.03;;;;;;;7.37;47.50;100736.13;4456318;32;35853;-81
2021/04/24 02:52:55;;;;;;;9.45;5.12;;;;;;;7.36;47.53;100739.56;4468606;32;33983;-81
2021/04/24 02:55:22;;;;;;;9.60;5.45;;;;;;;7.15;48.02;100749.31;4468851;32;33997;-81
2021/04/24 02:57:50;;;;;;;8.85;4.93;;;;;;;7.29;47.98;100743.72;4455955;32;34608;-82
2021/04/24 03:00:18;;;;;;;10.43;4.97;;;;;;;7.36;47.86;100737.88;4468785;32;34323;-81
2021/04/24 03:02:46;;;;;;;12.50;5.28;;;;;;;7.22;48.11;100744.38;4468777;32;35357;-81
2021/04/24 03:05:17;;;;;;;13.23;5.35;;;;;;;7.27;48.06;100742.75;4468830;32;33710;-81
2021/04/24 03:07:44;;;;;;;7.97;4.87;;;;;;;7.04;48.75;100738.66;4468622;32;35279;-81
2021/04/24 03:10:13;;;;;;;11.50;5.15;;;;;;;7.27;48.28;100737.59;4468502;32;34330;-81
2021/04/24 03:12:40;;;;;;;9.13;5.10;;;;;;;7.45;47.98;100738.09;4468528;32;34028;-81
2021/04/24 03:15:09;;;;;;;9.95;4.80;;;;;;;7.23;48.40;100740.06;4468662;32;33591;-81
2021/04/24 03:17:36;;;;;;;10.10;5.32;;;;;;;7.34;48.29;100736.94;4468779;32;34704;-81
2021/04/24 03:20:06;;;;;;;8.48;5.28;;;;;;;7.22;48.58;100735.72;4455648;32;34382;-81
2021/04/24 03:22:34;;;;;;;9.63;4.85;;;;;;;7.29;48.49;100741.13;4468473;32;34846;-81
2021/04/24 03:25:02;;;;;;;9.05;4.90;;;;;;;7.05;49.23;100735.25;4468417;32;33609;-81
2021/04/24 03:27:29;;;;;;;9.60;5.37;;;;;;;7.24;48.80;100737.53;4468229;32;34431;-81
2021/04/24 03:29:56;;;;;;;8.75;4.60;;;;;;;6.99;49.30;100742.81;4468586;32;34585;-81
2021/04/24 03:32:24;;;;;;;10.77;4.43;;;;;;;7.14;49.02;100743.28;4469445;32;35288;-81
2021/04/24 03:34:51;;;;;;;13.70;6.03;;;;;;;7.40;48.40;100739.69;4442720;32;32949;-80
2021/04/24 03:37:19;;;;;;;8.85;4.50;;;;;;;7.59;48.24;100750.53;4455585;32;34711;-81
2021/04/24 03:39:46;;;;;;;7.07;4.20;;;;;;;7.65;47.99;100751.59;4455496;32;34119;-81
2021/04/24 03:42:14;;;;;;;9.05;4.78;;;;;;;7.72;47.91;100752.63;4442542;32;33205;-81
2021/04/24 03:44:42;;;;;;;10.48;4.85;;;;;;;7.65;47.85;100759.37;4455433;32;32717;-80
2021/04/24 03:47:14;;;;;;;8.25;4.65;;;;;;;7.75;47.81;100760.47;4468277;32;33905;-81
2021/04/24 03:49:42;;;;;;;9.38;4.78;;;;;;;7.63;48.77;100754.97;4468133;32;34824;-81
2021/04/24 03:52:09;;;;;;;8.60;5.37;;;;;;;7.59;48.51;100758.28;4468230;32;34061;-81
2021/04/24 03:54:37;;;;;;;9.65;4.65;;;;;;;7.43;48.56;100763.09;4455197;32;32856;-81
2021/04/24 03:57:04;;;;;;;12.55;4.68;;;;;;;7.65;48.32;100772.31;4467699;32;33863;-81
2021/04/24 03:59:32;;;;;;;8.07;4.85;;;;;;;7.77;47.84;100764.88;4455286;32;34370;-81
2021/04/24 04:01:59;;;;;;;10.05;5.10;;;;;;;7.72;48.14;100768.16;4455549;32;33894;-81
2021/04/24 04:04:26;;;;;;;9.63;5.72;;;;;;;7.78;47.63;100766.59;4455169;32;34138;-81
2021/04/24 04:06:53;;;;;;;9.88;5.15;;;;;;;7.67;47.80;100772.34;4467991;32;35141;-81
2021/04/24 04:09:21;;;;;;;10.20;5.37;;;;;;;7.91;47.65;100762.63;4467893;32;34555;-81
2021/04/24 04:11:49;;;;;;;9.70;5.00;;;;;;;7.92;47.46;100761.75;4455256;32;33891;-81
2021/04/24 04:14:16;;;;;;;9.30;4.45;;;;;;;7.83;47.86;100764.12;4469004;32;34623;-81
2021/04/24 04:16:43;;;;;;;9.80;5.25;;;;;;;7.79;47.93;100770.06;4467870;32;34121;-81
2021/04/24 04:19:11;;;;;;;10.07;4.90;;;;;;;7.76;48.37;100781.22;4454915;32;34186;-81
2021/04/24 04:21:38;;;;;;;10.27;4.57;;;;;;;7.84;48.10;100784.03;4454964;32;34114;-81
2021/04/24 04:24:05;;;;;;;9.15;4.87;;;;;;;7.99;47.39;100777.50;4467984;32;33439;-81
2021/04/24 04:26:33;;;;;;;10.45;5.70;;;;;;;7.96;47.47;100773.97;4467870;32;35978;-81
2021/04/24 04:29:00;;;;;;;10.07;5.53;;;;;;;7.94;47.73;100776.50;4454627;32;34182;-81
2021/04/24 04:31:27;;;;;;;12.13;5.62;;;;;;;7.97;47.45;100775.72;4468795;32;34261;-81
2021/04/24 04:34:01;;;;;;;9.35;5.45;;;;;;;8.11;47.02;100770.06;4467577;32;33501;-81
2021/04/24 04:36:28;;;;;;;10.98;5.50;;;;;;;8.20;47.31;100770.28;4454836;32;32781;-81
2021/04/24 04:38:55;;;;;;;13.55;5.90;;;;;;;8.18;46.81;100773.66;4467445;32;34552;-81
2021/04/24 04:41:26;;;;;;;8.75;5.20;;;;;;;8.16;47.43;100773.63;4454990;32;34662;-81
2021/04/24 04:43:53;;;;;;;10.65;5.45;;;;;;;8.17;47.37;100775.41;4468271;32;33419;-81
2021/04/24 04:46:21;;;;;;;12.27;5.35;;;;;;;8.13;47.29;100768.38;4468367;32;34174;-81
2021/04/24 04:48:49;;;;;;;13.20;5.82;;;;;;;8.18;47.18;100771.94;4467441;32;34559;-81
2021/04/24 04:51:16;;;;;;;8.23;5.05;;;;;;;8.20;47.32;100780.63;4467158;32;35299;-81
2021/04/24 04:53:44;;;;;;;11.45;5.00;;;;;;;8.27;47.13;100780.84;4467077;32;33297;-81
2021/04/24 04:56:12;;;;;;;11.93;5.78;;;;;;;8.35;46.10;100781.88;4467163;32;33712;-81
2021/04/24 04:58:40;;;;;;;10.68;4.90;;;;;;;8.29;45.46;100779.16;4466867;32;33872;-81
2021/04/24 05:01:11;;;;;;;10.57;5.40;;;;;;;8.56;45.54;100775.50;4467046;32;33750;-81
2021/04/24 05:03:39;;;;;;;10.55;4.87;;;;;;;8.68;44.74;100770.59;4467000;32;33968;-81
2021/04/24 05:06:06;;;;;;;8.43;4.90;;;;;;;8.73;44.90;100774.16;4454166;32;34213;-81
2021/04/24 05:08:36;;;;;;;11.68;4.97;;;;;;;8.85;45.45;100779.63;4468424;32;34016;-81
2021/04/24 05:11:04;;;;;;;7.97;4.62;;;;;;;9.22;44.36;100780.41;4469333;32;34641;-81
2021/04/24 05:13:32;;;;;;;9.68;5.15;;;;;;;9.26;44.04;100777.91;4456320;32;33275;-81
2021/04/24 05:15:59;;;;;;;12.70;5.62;;;;;;;9.32;45.14;100778.03;4456333;32;34584;-81
2021/04/24 05:18:26;;;;;;;15.13;5.10;;;;;;;9.62;43.86;100774.28;4470393;32;34431;-81
2021/04/24 05:20:54;;;;;;;11.23;5.50;;;;;;;9.54;43.53;100780.22;4456336;32;34064;-81
2021/04/24 05:23:21;;;;;;;10.98;4.47;;;;;;;9.48;42.75;100779.22;4456489;32;33258;-81
2021/04/24 05:25:49;;;;;;;8.30;5.10;;;;;;;9.71;42.55;100779.66;4469232;32;34471;-81
2021/04/24 05:28:16;;;;;;;12.10;4.70;;;;;;;9.82;41.92;100775.50;4470411;32;34792;-81
2021/04/24 05:30:44;;;;;;;9.77;4.93;;;;;;;9.90;41.50;100776.53;4456463;32;33385;-81
2021/04/24 05:33:12;;;;;;;13.20;5.20;;;;;;;9.84;42.52;100779.91;4470358;32;33524;-81
2021/04/24 05:35:39;;;;;;;9.65;5.07;;;;;;;10.09;40.84;100773.41;4469452;32;33566;-81
2021/04/24 05:38:06;;;;;;;12.55;5.72;;;;;;;10.25;41.82;100779.78;4469121;32;34804;-81
2021/04/24 05:40:34;;;;;;;9.52;4.93;;;;;;;10.47;40.70;100774.94;4443561;32;34472;-81
2021/04/24 05:43:01;;;;;;;12.27;4.90;;;;;;;10.54;41.35;100775.91;4456106;32;34012;-81
2021/04/24 05:45:28;;;;;;;9.18;4.60;;;;;;;10.49;41.06;100769.75;4456281;32;34530;-81
2021/04/24 05:47:56;;;;;;;9.48;4.35;;;;;;;10.79;40.81;100772.84;4469275;32;34716;-81
2021/04/24 05:50:24;;;;;;;8.90;5.07;;;;;;;11.05;38.75;100773.19;4469543;32;33919;-81
2021/04/24 05:52:55;;;;;;;9.70;4.60;;;;;;;10.81;39.29;100768.53;4470158;32;33337;-81
2021/04/24 05:55:22;;;;;;;14.43;5.03;;;;;;;10.96;39.13;100768.72;4469212;32;33823;-81
2021/04/24 05:57:49;;;;;;;9.10;4.53;;;;;;;11.16;39.61;100774.19;4470231;32;35613;-81
2021/04/24 06:00:20;;;;;;;9.65;4.60;;;;;;;11.52;38.78;100769.44;4456325;32;33870;-81
2021/04/24 06:02:48;;;;;;;7.70;4.12;;;;;;;11.75;36.35;100764.50;4470528;32;33669;-82
2021/04/24 06:05:17;;;;;;;8.98;5.07;;;;;;;12.04;38.52;100765.66;4469803;32;33878;-82
2021/04/24 06:07:44;;;;;;;6.15;4.10;;;;;;;12.17;38.06;100772.75;4469742;32;34428;-82
2021/04/24 06:10:14;;;;;;;9.18;4.22;;;;;;;12.36;35.96;100774.62;4469603;32;34348;-82
2021/04/24 06:12:46;;;;;;;10.77;4.87;;;;;;;12.54;35.64;100774.78;4469633;32;34582;-83
2021/04/24 06:15:15;;;;;;;14.20;4.70;;;;;;;12.79;34.99;100775.78;4456689;32;34663;-82
2021/04/24 06:17:42;;;;;;;10.48;4.78;;;;;;;12.80;35.71;100777.56;4456450;32;33777;-82
2021/04/24 06:20:11;;;;;;;8.15;4.00;;;;;;;13.04;33.73;100782.91;4469545;32;34079;-82
2021/04/24 06:22:40;;;;;;;8.18;4.00;;;;;;;13.11;34.58;100776.00;4456572;32;32912;-82
2021/04/24 06:25:09;;;;;;;9.10;4.25;;;;;;;13.51;32.45;100780.53;4469363;32;33315;-82
2021/04/24 06:27:36;;;;;;;9.43;3.85;;;;;;;13.83;32.71;100776.28;4456482;32;34486;-82
2021/04/24 06:30:06;;;;;;;12.48;4.03;;;;;;;13.79;31.92;100776.25;4443906;32;33423;-82
2021/04/24 06:32:33;;;;;;;6.43;4.28;;;;;;;13.93;30.67;100771.94;4456483;32;33385;-82
2021/04/24 06:35:02;;;;;;;7.07;3.90;;;;;;;14.02;31.48;100769.34;4468962;32;33796;-82
2021/04/24 06:37:30;;;;;;;9.13;3.97;;;;;;;14.05;30.92;100775.44;4456399;32;35246;-82
2021/04/24 06:39:57;;;;;;;6.40;4.32;;;;;;;14.48;30.53;100767.62;4470425;32;33952;-82
2021/04/24 06:42:25;;;;;;;10.50;4.40;;;;;;;14.68;30.73;100782.44;4469130;32;33292;-82
2021/04/24 06:44:52;;;;;;;8.98;4.00;;;;;;;14.64;30.68;100766.75;4469428;32;34733;-82
2021/04/24 06:47:19;;;;;;;9.20;3.80;;;;;;;14.94;31.06;100771.91;4470631;32;35734;-82
2021/04/24 06:49:47;;;;;;;6.57;3.70;;;;;;;14.91;31.47;100771.91;4469355;32;34060;-82
2021/04/24 06:52:14;;;;;;;12.02;4.68;;;;;;;15.15;31.24;100761.38;4469559;32;33972;-82
2021/04/24 06:54:41;;;;;;;10.75;5.25;;;;;;;15.31;29.86;100765.66;4456544;32;33572;-83
2021/04/24 06:57:09;;;;;;;10.98;4.60;;;;;;;15.34;29.20;100765.66;4469506;32;35294;-83
2021/04/24 06:59:36;;;;;;;8.15;4.43;;;;;;;14.66;29.68;100770.25;4443823;32;34100;-83
2021/04/24 07:02:03;;;;;;;9.57;4.15;;;;;;;15.09;30.72;100766.66;4456857;32;33832;-82
2021/04/24 07:04:31;;;;;;;6.80;3.58;;;;;;;15.31;29.68;100762.16;4456551;32;33343;-82
2021/04/24 07:06:58;;;;;;;12.52;4.12;;;;;;;15.73;29.50;100759.41;4469529;32;34078;-82
2021/04/24 07:09:25;;;;;;;9.30;3.80;;;;;;;15.92;29.19;100754.91;4469157;32;34337;-82
2021/04/24 07:11:53;;;;;;;9.00;3.87;;;;;;;16.02;27.93;100748.72;4469442;32;33418;-82
2021/04/24 07:14:20;;;;;;;9.95;4.50;;;;;;;16.28;27.35;100750.22;4456287;32;33011;-83
2021/04/24 07:16:47;;;;;;;9.60;4.05;;;;;;;16.12;27.41;100747.72;4470521;32;34514;-82
2021/04/24 07:19:15;;;;;;;8.55;4.03;;;;;;;16.08;27.88;100751.28;4469524;32;34750;-82
2021/04/24 07:21:44;;;;;;;12.13;4.57;;;;;;;16.56;26.55;100748.28;4470378;32;34573;-82
2021/04/24 07:24:11;;;;;;;7.93;4.20;;;;;;;16.49;26.66;100745.69;4470366;32;33872;-82
2021/04/24 07:26:39;;;;;;;7.22;3.83;;;;;;;16.65;26.20;100752.56;4456386;32;34422;-82
2021/04/24 07:29:07;;;;;;;10.38;3.95;;;;;;;16.24;26.81;100750.25;4469030;32;35331;-82
2021/04/24 07:31:34;;;;;;;6.15;4.07;;;;;;;16.53;26.10;100747.41;4455399;32;33253;-83
2021/04/24 07:34:04;;;;;;;8.57;4.07;;;;;;;16.86;25.33;100747.97;4468911;32;35212;-82
2021/04/24 07:36:31;;;;;;;8.07;4.18;;;;;;;16.67;25.49;100745.53;4469059;32;34695;-82
2021/04/24 07:38:58;;;;;;;6.65;3.72;;;;;;;16.58;26.65;100750.88;4469010;32;35171;-83
2021/04/24 07:41:29;;;;;;;7.10;4.28;;;;;;;16.68;25.79;100755.16;4469152;32;33360;-82
2021/04/24 07:43:56;;;;;;;9.02;4.07;;;;;;;16.93;27.30;100748.75;4469916;32;35123;-83
2021/04/24 07:46:24;;;;;;;7.95;3.80;;;;;;;16.89;26.33;100747.94;4470035;32;34388;-82
2021/04/24 07:48:51;;;;;;;9.68;3.20;;;;;;;16.90;25.24;100749.66;4456017;32;34499;-83
2021/04/24 07:51:18;;;;;;;7.93;4.65;;;;;;;16.77;38.21;100750.69;4468940;32;33252;-82
2021/04/24 07:53:46;;;;;;;7.05;4.07;;;;;;;16.76;26.24;100750.69;4468902;32;33937;-82
2021/04/24 07:56:13;;;;;;;7.70;3.78;;;;;;;16.63;25.45;100747.34;4468732;32;34001;-82
2021/04/24 07:58:41;;;;;;;7.00;3.90;;;;;;;16.79;26.48;100745.41;4468781;32;34279;-82
2021/04/24 08:01:08;;;;;;;7.82;3.53;;;;;;;16.76;25.07;100746.31;4468524;32;34555;-82
2021/04/24 08:03:36;;;;;;;8.80;4.05;;;;;;;16.97;25.86;100749.59;4455694;32;33001;-81
2021/04/24 08:06:04;;;;;;;8.18;3.85;;;;;;;17.21;25.28;100750.16;4468523;32;34717;-82
2021/04/24 08:08:31;;;;;;;7.68;3.90;;;;;;;17.09;24.91;100749.47;4455709;32;33995;-82
2021/04/24 08:10:59;;;;;;;8.65;4.00;;;;;;;17.28;24.65;100751.00;4469724;32;33262;-82
2021/04/24 08:13:26;;;;;;;6.10;3.62;;;;;;;17.12;24.70;100749.41;4468361;32;33794;-83
2021/04/24 08:15:54;;;;;;;10.30;4.28;;;;;;;17.05;24.90;100742.47;4455448;32;35292;-82
2021/04/24 08:18:22;;;;;;;7.15;3.37;;;;;;;16.99;25.77;100743.44;4468307;32;34394;-83
2021/04/24 08:20:49;;;;;;;7.05;3.22;;;;;;;16.13;24.49;100739.88;4455494;32;34055;-82
2021/04/24 08:23:16;;;;;;;6.10;3.30;;;;;;;16.69;24.35;100739.38;4469673;32;33877;-82
2021/04/24 08:25:43;;;;;;;5.32;3.30;;;;;;;17.15;24.34;100739.75;4455549;32;35706;-83
2021/04/24 08:28:10;;;;;;;6.62;3.30;;;;;;;17.19;23.16;100737.94;4469349;32;34738;-82
2021/04/24 08:30:38;;;;;;;6.00;3.35;;;;;;;17.36;23.62;100743.84;4467930;32;33000;-82
2021/04/24 08:33:07;;;;;;;9.48;4.00;;;;;;;17.21;24.05;100739.66;4467858;32;33734;-82
2021/04/24 08:35:36;;;;;;;7.07;3.60;;;;;;;17.24;24.83;100738.75;4468035;32;34395;-82
2021/04/24 08:38:04;;;;;;;7.15;3.70;;;;;;;17.06;24.74;100742.50;4454937;32;34061;-81
2021/04/24 08:40:32;;;;;;;6.65;3.67;;;;;;;17.26;24.71;100742.22;4455335;32;33857;-81
2021/04/24 08:43:01;;;;;;;5.50;3.37;;;;;;;17.39;24.28;100738.56;4469909;32;33827;-82
2021/04/24 08:45:29;;;;;;;6.82;4.20;;;;;;;17.42;23.67;100734.12;4470097;32;34773;-82
2021/04/24 08:47:57;;;;;;;7.85;3.90;;;;;;;17.61;23.59;100731.28;4470485;32;34591;-82
2021/04/24 08:50:26;;;;;;;7.97;3.97;;;;;;;17.00;23.89;100733.81;4470560;32;33240;-82
2021/04/24 08:52:55;;;;;;;5.75;3.35;;;;;;;17.31;24.11;100735.16;4470103;32;34006;-82
2021/04/24 08:55:25;;;;;;;8.40;3.83;;;;;;;17.40;24.71;100740.31;4457121;32;35133;-82
2021/04/24 08:57:53;;;;;;;6.60;3.47;;;;;;;17.34;23.98;100736.00;4471531;32;35264;-83
2021/04/24 09:00:25;;;;;;;6.95;3.55;;;;;;;17.51;24.62;100728.78;4470147;32;33584;-82
2021/04/24 09:02:53;;;;;;;7.57;4.10;;;;;;;17.85;23.99;100737.03;4470097;32;35081;-83
2021/04/24 09:05:21;;;;;;;6.93;4.10;;;;;;;17.93;23.17;100724.66;4471335;32;34487;-82
2021/04/24 09:08:05;;;;;;;8.95;3.95;;;;;;;17.78;22.45;100722.25;4457404;32;35286;-84
2021/04/24 09:10:37;;;;;;;6.37;3.37;;;;;;;17.68;22.34;100718.03;4470218;32;33232;-83
2021/04/24 09:13:05;;;;;;;10.52;4.45;;;;;;;17.33;24.44;100723.72;4470254;32;34238;-83
2021/04/24 09:15:33;;;;;;;6.60;3.97;;;;;;;17.49;25.07;100721.78;4469815;32;34404;-84
2021/04/24 09:18:00;;;;;;;9.20;4.18;;;;;;;17.56;23.10;100713.81;4457161;32;33749;-84
2021/04/24 09:20:35;;;;;;;8.15;3.85;;;;;;;17.45;24.05;100713.03;4471507;32;33177;-83
2021/04/24 09:23:06;;;;;;;7.68;3.90;;;;;;;17.42;24.19;100712.22;4457278;32;33762;-83
2021/04/24 09:25:36;;;;;;;7.18;3.78;;;;;;;17.69;24.99;100706.59;4471290;32;35970;-83
2021/04/24 09:28:06;;;;;;;8.13;3.80;;;;;;;17.72;23.45;100708.31;4457036;32;33377;-83
2021/04/24 09:30:34;;;;;;;8.10;3.70;;;;;;;17.64;23.65;100713.69;4457012;32;32932;-83
2021/04/24 09:33:05;;;;;;;7.70;3.60;;;;;;;17.41;23.87;100706.09;4470757;32;34725;-83
2021/04/24 09:35:46;;;;;;;6.93;3.90;;;;;;;17.94;23.83;100696.59;4469242;32;34246;-83
2021/04/24 09:38:28;;;;;;;6.18;3.22;;;;;;;17.87;23.03;100694.94;4456464;32;33729;-83
2021/04/24 09:41:20;;;;;;;10.52;4.15;;;;;;;17.80;22.25;100693.31;4469419;32;34049;-83
2021/04/24 09:43:53;;;;;;;8.82;3.87;;;;;;;17.81;22.69;100698.53;4470622;32;34159;-83
2021/04/24 09:46:32;;;;;;;11.25;4.82;;;;;;;17.81;22.33;100693.25;4456780;32;34715;-83
2021/04/24 09:49:20;;;;;;;14.57;4.80;;;;;;;17.85;22.44;100676.53;4456798;32;33355;-82
2021/04/24 09:52:09;;;;;;;8.75;4.45;;;;;;;17.98;24.08;100683.34;4456954;32;33351;-83
2021/04/24 09:54:44;;;;;;;6.50;4.35;;;;;;;18.20;23.91;100679.47;4469505;32;33819;-83
2021/04/24 09:57:20;;;;;;;9.32;4.80;;;;;;;17.95;24.17;100670.22;4469359;32;35190;-83
2021/04/24 09:59:58;;;;;;;8.85;4.97;;;;;;;17.65;24.56;100673.34;4456977;32;35826;-84
2021/04/24 10:02:35;;;;;;;9.45;4.03;;;;;;;17.69;26.32;100659.25;4456168;32;34110;-83
2021/04/24 10:05:08;;;;;;;6.93;4.50;;;;;;;17.83;24.62;100662.53;4456109;32;35246;-83
2021/04/24 10:07:44;;;;;;;7.65;4.35;;;;;;;17.96;24.32;100657.94;4469131;32;34528;-83
2021/04/24 10:10:14;;;;;;;6.62;4.28;;;;;;;17.91;23.55;100650.13;4469943;32;34287;-83
2021/04/24 10:12:53;;;;;;;10.45;4.37;;;;;;;17.81;23.17;100645.03;4469125;32;34103;-83
2021/04/24 10:15:37;;;;;;;7.62;4.20;;;;;;;17.91;22.83;100647.50;4469643;32;35218;-82
2021/04/24 10:18:06;;;;;;;11.05;4.90;;;;;;;18.05;23.13;100642.00;4469561;32;34357;-82
2021/04/24 10:20:34;;;;;;;9.73;4.70;;;;;;;18.31;22.81;100637.13;4469525;32;33878;-83
2021/04/24 10:23:03;;;;;;;8.70;5.18;;;;;;;18.54;22.94;100640.22;4469424;32;34129;-83
2021/04/24 10:25:30;;;;;;;10.50;5.35;;;;;;;18.68;23.79;100642.59;4470351;32;34155;-83
2021/04/24 10:27:58;;;;;;;7.60;5.25;;;;;;;18.65;24.58;100633.00;4469392;32;34477;-83
2021/04/24 10:30:25;;;;;;;12.32;6.47;;;;;;;18.46;24.74;100623.72;4469247;32;35354;-83
2021/04/24 10:32:54;;;;;;;11.52;5.62;;;;;;;18.73;24.58;100622.31;4456357;32;33059;-83
2021/04/24 10:35:23;;;;;;;10.68;5.28;;;;;;;18.91;24.50;100616.66;4456375;32;33105;-83
2021/04/24 10:37:54;;;;;;;7.57;4.85;;;;;;;19.09;23.77;100618.88;4469377;32;35266;-83
2021/04/24 10:40:21;;;;;;;12.52;5.10;;;;;;;19.11;22.12;100609.16;4469525;32;34012;-82
2021/04/24 10:42:51;;;;;;;8.75;4.37;;;;;;;18.88;21.89;100606.16;4469153;32;33357;-83
2021/04/24 10:45:33;;;;;;;7.32;4.32;;;;;;;18.74;21.90;100609.09;4469412;32;33809;-82
2021/04/24 10:48:01;;;;;;;;;;;;;;;18.64;23.52;100604.03;4469691;32;34152;-83
2021/04/24 10:50:43;;;;;;;7.50;4.07;;;;;;;18.88;22.49;100598.25;4469505;32;34301;-83
2021/04/24 10:53:17;;;;;;;8.98;4.45;;;;;;;18.75;22.69;100594.16;4470396;32;33374;-82
2021/04/24 10:55:45;;;;;;;6.93;4.43;;;;;;;18.28;22.46;100600.31;4470392;32;33811;-83
2021/04/24 10:58:21;;;;;;;7.50;3.97;;;;;;;18.17;22.30;100597.91;4456477;32;35540;-83
2021/04/24 11:00:48;;;;;;;6.20;3.45;;;;;;;17.92;22.76;100593.97;4469313;32;33943;-84
2021/04/24 11:03:34;;;;;;;7.43;3.75;;;;;;;17.60;23.72;100596.25;4469184;32;34001;-82
2021/04/24 11:06:08;;;;;;;5.80;3.45;;;;;;;17.73;22.52;100587.28;4469164;32;33826;-82
2021/04/24 11:08:36;;;;;;;7.43;3.50;;;;;;;18.19;23.12;100588.19;4469001;32;35161;-82
2021/04/24 11:11:14;;;;;;;9.50;3.35;;;;;;;18.63;21.94;100578.59;4456271;32;33977;-83
2021/04/24 11:13:55;;;;;;;5.40;3.33;;;;;;;18.52;22.29;100580.59;4456216;32;33255;-83
2021/04/24 11:16:24;;;;;;;5.37;3.20;;;;;;;18.49;21.27;100570.97;4456151;32;34258;-83
2021/04/24 11:18:52;;;;;;;6.20;3.35;;;;;;;18.20;21.48;100568.87;4468885;32;35310;-83
2021/04/24 11:21:29;;;;;;;7.35;2.83;;;;;;;17.87;22.74;100569.50;4470266;32;34049;-82
2021/04/24 11:24:06;;;;;;;5.10;2.40;;;;;;;18.60;20.92;100557.56;4456366;32;32839;-83
2021/04/24 11:26:34;;;;;;;6.62;2.45;;;;;;;19.01;20.20;100551.41;4468800;32;33819;-82
2021/04/24 11:29:09;;;;;;;5.47;2.28;;;;;;;18.99;20.58;100562.00;4469223;32;34299;-82
2021/04/24 11:31:45;;;;;;;3.87;1.83;;;;;;;19.22;18.87;100545.63;4469064;32;33971;-84
2021/04/24 11:34:33;;;;;;;4.00;2.22;;;;;;;19.11;19.83;100545.87;4469958;32;33443;-83
2021/04/24 11:37:20;;;;;;;7.60;2.22;;;;;;;18.76;19.36;100543.16;4443517;32;33450;-83